Time;durP1;ratioP1;P1;durP2;ratioP2;P2;SDS_P1;SDS_P2;PMS_P1;PMS_P2;Temp;Humidity;BMP_temperature;BMP_pressure;BME280_temperature;BME280_humidity;BME280_pressure;Samples;Min_cycle;Max_cycle;Signal;HPM_P1;HPM_P2
2021/05/22 00:00:21;;;;;;;5.40;1.88;;;12.10;94.20;;;;;;5109276;28;20024;-39
2021/05/22 00:02:46;;;;;;;5.22;1.38;;;12.10;94.30;;;;;;5109049;28;20039;-40
2021/05/22 00:05:12;;;;;;;5.38;1.45;;;12.10;94.60;;;;;;5108180;28;20039;-39
2021/05/22 00:07:38;;;;;;;2.05;1.15;;;12.00;94.70;;;;;;5109359;28;20023;-40
2021/05/22 00:10:10;;;;;;;2.72;1.08;;;12.00;94.70;;;;;;5108624;28;20135;-39
2021/05/22 00:12:37;;;;;;;;;;;12.00;94.60;;;;;;5108717;28;20596;-39
2021/05/22 00:15:05;;;;;;;4.05;1.48;;;12.00;94.70;;;;;;5108146;28;20003;-40
2021/05/22 00:17:30;;;;;;;2.65;1.38;;;12.00;94.60;;;;;;5108496;28;20050;-40
2021/05/22 00:19:56;;;;;;;5.25;1.80;;;12.00;94.70;;;;;;5107998;28;20107;-39
2021/05/22 00:22:21;;;;;;;5.63;1.65;;;11.90;94.60;;;;;;5108969;28;20031;-33
2021/05/22 00:24:47;;;;;;;6.60;1.50;;;11.90;94.80;;;;;;5108161;28;20873;-39
2021/05/22 00:27:12;;;;;;;6.57;1.73;;;11.90;94.70;;;;;;5108605;28;20459;-38
2021/05/22 00:29:38;;;;;;;6.35;1.90;;;11.90;94.60;;;;;;5108004;28;20027;-40
2021/05/22 00:32:04;;;;;;;7.05;1.63;;;11.90;94.50;;;;;;5108547;28;20016;-38
2021/05/22 00:34:29;;;;;;;3.72;1.30;;;11.90;94.40;;;;;;5108266;28;20063;-41
2021/05/22 00:36:54;;;;;;;6.63;1.60;;;11.90;94.40;;;;;;5107945;28;20034;-42
2021/05/22 00:39:26;;;;;;;6.35;1.77;;;11.90;94.30;;;;;;5108633;28;20089;-40
2021/05/22 00:41:52;;;;;;;7.82;1.90;;;12.00;94.30;;;;;;5106573;28;20016;-39
2021/05/22 00:44:17;;;;;;;5.07;1.70;;;12.00;94.10;;;;;;5108677;28;20561;-39
2021/05/22 00:46:43;;;;;;;5.47;1.58;;;12.00;94.00;;;;;;5107582;28;20027;-40
2021/05/22 00:49:08;;;;;;;5.57;1.38;;;12.00;94.00;;;;;;5108119;28;20104;-40
2021/05/22 00:51:34;;;;;;;5.95;1.42;;;12.00;94.10;;;;;;5108157;28;20794;-40
2021/05/22 00:53:59;;;;;;;7.38;1.33;;;12.00;93.90;;;;;;5107517;28;20042;-40
2021/05/22 00:56:26;;;;;;;5.18;1.75;;;12.00;93.80;;;;;;5107961;28;20025;-37
2021/05/22 00:58:51;;;;;;;6.43;1.90;;;12.00;93.80;;;;;;5107990;28;20035;-38
2021/05/22 01:01:17;;;;;;;3.72;1.20;;;12.00;93.70;;;;;;5107574;28;20028;-39
2021/05/22 01:03:45;;;;;;;5.55;1.30;;;12.00;93.70;;;;;;5107515;28;20487;-40
2021/05/22 01:06:10;;;;;;;7.57;1.65;;;12.00;93.80;;;;;;5107828;28;20016;-40
2021/05/22 01:08:37;;;;;;;5.10;1.80;;;12.10;93.90;;;;;;5106740;28;20062;-40
2021/05/22 01:11:08;;;;;;;7.00;1.60;;;12.10;93.60;;;;;;5107490;28;20015;-40
2021/05/22 01:13:37;;;;;;;7.47;1.95;;;12.00;93.50;;;;;;5096680;28;20386;-39
2021/05/22 01:16:03;;;;;;;8.07;1.80;;;12.00;93.50;;;;;;5106871;28;20134;-38
2021/05/22 01:18:31;;;;;;;5.70;1.80;;;11.90;93.50;;;;;;5107860;28;20119;-39
2021/05/22 01:21:02;;;;;;;8.13;1.70;;;12.00;93.30;;;;;;5107612;28;20024;-40
2021/05/22 01:23:42;;;;;;;5.68;1.40;;;12.00;93.50;;;;;;5103751;28;20027;-41
2021/05/22 01:26:09;;;;;;;7.82;1.35;;;12.00;93.50;;;;;;5107959;28;20032;-40
2021/05/22 01:28:36;;;;;;;4.82;1.25;;;12.00;93.50;;;;;;5106933;28;20035;-41
2021/05/22 01:31:05;;;;;;;8.40;1.23;;;11.90;93.50;;;;;;5107558;28;20130;-39
2021/05/22 01:33:30;;;;;;;5.50;1.38;;;11.90;93.60;;;;;;5107292;28;20084;-39
2021/05/22 01:35:56;;;;;;;7.35;1.52;;;11.90;93.50;;;;;;5106802;28;20015;-39
2021/05/22 01:38:22;;;;;;;6.97;1.52;;;11.90;93.40;;;;;;5107596;28;20028;-39
2021/05/22 01:40:49;;;;;;;4.78;1.20;;;11.90;93.40;;;;;;5107280;28;20444;-38
2021/05/22 01:43:14;;;;;;;7.72;1.45;;;11.90;93.40;;;;;;5106823;28;20082;-40
2021/05/22 01:45:43;;;;;;;4.30;1.30;;;11.90;93.40;;;;;;5107174;28;20023;-40
2021/05/22 01:48:14;;;;;;;5.53;1.40;;;11.80;93.40;;;;;;5107156;28;20127;-40
2021/05/22 01:50:43;;;;;;;6.05;2.20;;;11.80;93.50;;;;;;5106556;28;20020;-40
2021/05/22 01:53:12;;;;;;;9.40;3.33;;;11.80;93.70;;;;;;5107373;28;20024;-40
2021/05/22 01:55:40;;;;;;;4.25;1.40;;;11.80;93.70;;;;;;5106789;28;20031;-40
2021/05/22 01:58:06;;;;;;;7.55;1.52;;;11.80;93.70;;;;;;5106076;28;20058;-37
2021/05/22 02:00:32;;;;;;;6.72;1.42;;;11.80;93.70;;;;;;5106867;28;20617;-40
2021/05/22 02:03:14;;;;;;;7.88;1.85;;;11.80;93.60;;;;;;5106558;28;20099;-40
2021/05/22 02:05:40;;;;;;;6.07;1.58;;;11.80;93.70;;;;;;5106746;28;20027;-40
2021/05/22 02:08:11;;;;;;;4.20;1.30;;;11.80;93.80;;;;;;5106521;28;20084;-40
2021/05/22 02:10:37;;;;;;;4.93;1.40;;;11.80;93.80;;;;;;5106576;28;20054;-40
2021/05/22 02:13:03;;;;;;;4.82;1.50;;;11.80;93.90;;;;;;5106665;28;20027;-40
2021/05/22 02:15:31;;;;;;;4.10;1.58;;;11.80;94.10;;;;;;5106714;28;20027;-40
2021/05/22 02:17:57;;;;;;;3.78;1.50;;;11.70;94.10;;;;;;5105881;28;20391;-39
2021/05/22 02:20:25;;;;;;;7.22;2.50;;;11.80;94.10;;;;;;5106739;28;20030;-40
2021/05/22 02:22:52;;;;;;;6.10;1.65;;;11.70;94.10;;;;;;5106211;28;20394;-44
2021/05/22 02:25:19;;;;;;;5.85;2.13;;;11.80;94.10;;;;;;5105987;28;20158;-40
2021/05/22 02:27:57;;;;;;;4.25;1.20;;;11.80;94.10;;;;;;5105925;28;20030;-39
2021/05/22 02:30:23;;;;;;;4.18;1.10;;;11.80;94.20;;;;;;5106307;28;20023;-39
2021/05/22 02:32:49;;;;;;;5.07;1.38;;;11.80;94.10;;;;;;5105906;28;20026;-40
2021/05/22 02:35:18;;;;;;;5.70;1.27;;;11.70;94.10;;;;;;5106142;28;20538;-39
2021/05/22 02:37:47;;;;;;;4.10;1.13;;;11.70;94.20;;;;;;5086102;28;20504;-40
2021/05/22 02:40:19;;;;;;;3.83;1.02;;;11.70;94.30;;;;;;5101056;28;20171;-39
2021/05/22 02:42:53;;;;;;;5.45;1.08;;;11.70;94.30;;;;;;5105980;28;20110;-41
2021/05/22 02:45:19;;;;;;;2.67;1.30;;;11.70;94.40;;;;;;5106090;28;20102;-40
2021/05/22 02:47:47;;;;;;;3.17;0.95;;;11.80;94.40;;;;;;5105486;28;20355;-39
2021/05/22 02:50:13;;;;;;;4.05;1.10;;;11.70;94.50;;;;;;5105666;28;20027;-39
2021/05/22 02:52:39;;;;;;;4.55;1.20;;;11.70;94.50;;;;;;5105300;28;20463;-39
2021/05/22 02:55:09;;;;;;;6.18;1.52;;;11.70;94.60;;;;;;5105679;28;20099;-40
2021/05/22 02:57:38;;;;;;;5.25;1.35;;;11.70;94.60;;;;;;5105216;28;20431;-42
2021/05/22 03:00:05;;;;;;;2.95;1.08;;;11.80;94.60;;;;;;5104955;28;20092;-38
2021/05/22 03:02:32;;;;;;;4.90;1.20;;;11.70;94.50;;;;;;5105648;28;20023;-39
2021/05/22 03:04:58;;;;;;;4.57;1.20;;;11.70;94.60;;;;;;5105464;28;20027;-39
2021/05/22 03:07:24;;;;;;;3.35;1.10;;;11.70;94.70;;;;;;5105490;28;20030;-40
2021/05/22 03:09:49;;;;;;;6.60;1.25;;;11.70;94.90;;;;;;5104854;28;20066;-41
2021/05/22 03:12:19;;;;;;;4.63;1.23;;;11.70;94.90;;;;;;5105902;28;20020;-39
2021/05/22 03:14:44;;;;;;;3.67;1.23;;;11.70;95.30;;;;;;5104966;28;20051;-39
2021/05/22 03:17:13;;;;;;;3.78;1.00;;;11.70;95.80;;;;;;5105658;28;20036;-41
2021/05/22 03:19:38;;;;;;;5.05;1.42;;;11.60;95.40;;;;;;5105789;28;20042;-40
2021/05/22 03:22:04;;;;;;;3.60;1.33;;;11.60;95.30;;;;;;5104296;28;20344;-40
2021/05/22 03:24:29;;;;;;;5.07;1.10;;;11.60;95.20;;;;;;5105619;28;20081;-41
2021/05/22 03:26:55;;;;;;;4.63;1.20;;;11.60;95.30;;;;;;5104792;28;20039;-40
2021/05/22 03:29:20;;;;;;;2.30;0.90;;;11.60;95.20;;;;;;5104969;28;20027;-39
2021/05/22 03:31:46;;;;;;;3.40;0.90;;;11.60;95.10;;;;;;5105054;28;20027;-39
2021/05/22 03:34:11;;;;;;;4.93;1.27;;;11.60;95.10;;;;;;5105079;28;20088;-40
2021/05/22 03:36:37;;;;;;;5.35;1.33;;;11.70;95.00;;;;;;5104808;28;20072;-40
2021/05/22 03:39:04;;;;;;;8.45;1.08;;;11.70;94.90;;;;;;5105162;28;20473;-40
2021/05/22 03:41:29;;;;;;;3.45;0.98;;;11.70;94.70;;;;;;5105094;28;20111;-39
2021/05/22 03:43:55;;;;;;;3.78;1.42;;;11.80;94.80;;;;;;5104822;28;20028;-37
2021/05/22 03:46:20;;;;;;;3.53;1.33;;;11.70;94.80;;;;;;5105258;28;20426;-40
2021/05/22 03:48:46;;;;;;;4.82;1.20;;;11.70;94.80;;;;;;5104679;28;20024;-40
2021/05/22 03:51:12;;;;;;;5.88;1.02;;;11.80;94.80;;;;;;5104962;28;20035;-38
2021/05/22 03:53:37;;;;;;;2.92;0.75;;;11.70;94.70;;;;;;5105471;28;20020;-40
2021/05/22 03:56:04;;;;;;;5.72;1.10;;;11.80;94.90;;;;;;5104576;28;20102;-40
2021/05/22 03:58:29;;;;;;;2.95;1.08;;;11.70;94.90;;;;;;5103275;28;20050;-40
2021/05/22 04:00:55;;;;;;;6.07;1.00;;;11.80;94.90;;;;;;5105407;28;20032;-39
2021/05/22 04:03:21;;;;;;;4.18;0.85;;;11.70;95.00;;;;;;5104509;28;20515;-40
2021/05/22 04:05:47;;;;;;;8.13;1.30;;;11.80;95.10;;;;;;5104953;28;20531;-39
2021/05/22 04:08:12;;;;;;;1.63;0.77;;;11.80;95.10;;;;;;5105269;28;20111;-39
2021/05/22 04:10:38;;;;;;;7.00;1.27;;;11.80;95.10;;;;;;5104256;28;20020;-40
2021/05/22 04:13:03;;;;;;;3.20;0.95;;;11.80;95.10;;;;;;5104741;28;20463;-40
2021/05/22 04:15:29;;;;;;;4.43;1.20;;;11.80;95.10;;;;;;5105368;28;20110;-38
2021/05/22 04:17:54;;;;;;;3.42;1.02;;;11.80;95.10;;;;;;5107165;28;20031;-37
2021/05/22 04:20:20;;;;;;;5.28;1.27;;;11.90;95.10;;;;;;5109017;28;20031;-40
2021/05/22 04:22:45;;;;;;;3.17;0.85;;;11.80;95.20;;;;;;5107606;28;20508;-40
2021/05/22 04:25:11;;;;;;;6.32;1.63;;;11.80;95.20;;;;;;5108354;28;20035;-39
2021/05/22 04:27:37;;;;;;;6.95;1.17;;;11.80;95.20;;;;;;5108755;28;20019;-40
2021/05/22 04:30:04;;;;;;;2.72;0.98;;;11.80;95.20;;;;;;5108393;28;20068;-40
2021/05/22 04:32:30;;;;;;;3.17;1.13;;;11.80;95.60;;;;;;5107786;28;20491;-40
2021/05/22 04:34:55;;;;;;;3.25;0.85;;;11.80;95.50;;;;;;5108177;28;20075;-40
2021/05/22 04:37:21;;;;;;;5.22;1.40;;;11.80;95.90;;;;;;5107807;28;20047;-40
2021/05/22 04:39:46;;;;;;;4.68;1.10;;;11.70;96.20;;;;;;5107620;28;20012;-39
2021/05/22 04:42:12;;;;;;;3.60;1.00;;;11.70;96.50;;;;;;5108516;28;20454;-40
2021/05/22 04:44:38;;;;;;;4.38;1.20;;;11.60;96.70;;;;;;5107869;28;20038;-40
2021/05/22 04:47:03;;;;;;;7.43;1.67;;;11.60;96.70;;;;;;5107336;28;20020;-40
2021/05/22 04:49:29;;;;;;;5.95;1.48;;;11.60;97.20;;;;;;5108005;28;20031;-40
2021/05/22 04:51:57;;;;;;;6.38;1.40;;;11.50;97.60;;;;;;5108183;28;20047;-39
2021/05/22 04:54:32;;;;;;;7.90;1.75;;;11.50;98.00;;;;;;5107398;28;20168;-38
2021/05/22 04:56:58;;;;;;;5.82;1.80;;;11.40;98.20;;;;;;5107882;28;20135;-40
2021/05/22 04:59:24;;;;;;;5.85;1.50;;;11.30;98.90;;;;;;5107195;28;20104;-40
2021/05/22 05:01:49;;;;;;;4.97;1.40;;;11.30;98.90;;;;;;5107610;28;20054;-40
2021/05/22 05:04:15;;;;;;;4.07;1.20;;;11.20;99.20;;;;;;5108236;28;20037;-40
2021/05/22 05:06:41;;;;;;;8.75;1.90;;;11.20;99.30;;;;;;5106946;28;20426;-40
2021/05/22 05:09:06;;;;;;;5.53;1.55;;;11.10;99.40;;;;;;5107584;28;20041;-42
2021/05/22 05:11:32;;;;;;;7.80;1.70;;;11.20;99.70;;;;;;5107836;28;20088;-39
2021/05/22 05:13:58;;;;;;;5.47;1.52;;;11.10;99.80;;;;;;5107496;28;20015;-40
2021/05/22 05:16:24;;;;;;;6.68;1.58;;;11.10;99.80;;;;;;5107868;28;20076;-40
2021/05/22 05:18:50;;;;;;;6.00;1.58;;;11.10;99.80;;;;;;5107150;28;20481;-40
2021/05/22 05:21:18;;;;;;;6.75;1.75;;;11.00;99.80;;;;;;5107015;28;20031;-39
2021/05/22 05:23:43;;;;;;;5.15;1.80;;;11.00;99.90;;;;;;5107139;28;20031;-38
2021/05/22 05:26:12;;;;;;;6.10;1.60;;;11.10;99.90;;;;;;5107773;28;20023;-40
2021/05/22 05:28:37;;;;;;;9.02;2.08;;;11.10;99.90;;;;;;5107011;28;20038;-39
2021/05/22 05:31:04;;;;;;;4.80;1.50;;;11.00;99.90;;;;;;5107552;28;20024;-38
2021/05/22 05:33:30;;;;;;;8.90;1.73;;;11.00;99.90;;;;;;5107257;28;20111;-39
2021/05/22 05:35:56;;;;;;;7.65;1.50;;;11.00;99.90;;;;;;5106292;28;20094;-40
2021/05/22 05:38:21;;;;;;;6.95;1.60;;;11.00;99.90;;;;;;5107715;28;20039;-40
2021/05/22 05:40:54;;;;;;;7.35;1.77;;;11.00;99.90;;;;;;5106723;28;20023;-39
2021/05/22 05:43:19;;;;;;;9.13;1.98;;;11.00;99.90;;;;;;5107354;28;20080;-40
2021/05/22 05:45:45;;;;;;;6.63;1.83;;;11.00;99.90;;;;;;5107553;28;20019;-40
2021/05/22 05:48:11;;;;;;;7.68;1.70;;;10.90;99.90;;;;;;5106838;28;20023;-38
2021/05/22 05:50:36;;;;;;;8.88;2.17;;;10.90;99.90;;;;;;5106823;28;20007;-40
2021/05/22 05:53:08;;;;;;;3.85;1.58;;;10.90;99.90;;;;;;5108207;28;20056;-40
2021/05/22 05:55:34;;;;;;;6.63;1.83;;;10.90;99.90;;;;;;5107035;28;20489;-41
2021/05/22 05:57:59;;;;;;;4.72;1.65;;;10.90;99.90;;;;;;5107579;28;20067;-39
2021/05/22 06:00:25;;;;;;;4.72;1.30;;;10.90;99.90;;;;;;5107906;28;20031;-40
2021/05/22 06:02:51;;;;;;;5.88;1.60;;;10.80;99.90;;;;;;5106815;28;20515;-40
2021/05/22 06:05:17;;;;;;;7.00;2.13;;;10.80;99.90;;;;;;5107980;28;20020;-40
2021/05/22 06:07:43;;;;;;;7.53;1.50;;;10.70;99.90;;;;;;5106983;28;20136;-40
2021/05/22 06:10:09;;;;;;;7.82;1.77;;;10.80;99.90;;;;;;5107716;28;20453;-40
2021/05/22 06:12:36;;;;;;;6.13;1.40;;;10.80;99.90;;;;;;5106775;28;20028;-37
2021/05/22 06:15:20;;;;;;;5.35;1.50;;;10.80;99.90;;;;;;5107741;28;20114;-41
2021/05/22 06:17:46;;;;;;;10.57;1.52;;;10.80;99.90;;;;;;5106659;28;20119;-41
2021/05/22 06:20:13;;;;;;;8.88;1.63;;;10.90;99.90;;;;;;5107660;28;20402;-43
2021/05/22 06:22:39;;;;;;;7.63;1.40;;;10.90;99.90;;;;;;5107233;28;20034;-40
2021/05/22 06:25:05;;;;;;;3.35;1.25;;;10.90;99.90;;;;;;5106984;28;20035;-42
2021/05/22 06:27:31;;;;;;;7.82;2.03;;;10.90;99.90;;;;;;5110665;27;20374;-40
2021/05/22 06:29:57;;;;;;;8.70;1.50;;;10.90;99.90;;;;;;5105895;28;20106;-40
2021/05/22 06:32:22;;;;;;;6.63;1.50;;;10.80;99.90;;;;;;5105704;28;20023;-40
2021/05/22 06:34:48;;;;;;;5.10;1.67;;;10.80;99.90;;;;;;5103369;28;20045;-40
2021/05/22 06:37:14;;;;;;;5.78;1.52;;;10.80;99.90;;;;;;5104527;28;20387;-41
2021/05/22 06:39:39;;;;;;;6.85;1.65;;;10.80;99.90;;;;;;5104173;28;20518;-41
2021/05/22 06:42:05;;;;;;;6.82;1.67;;;10.80;99.90;;;;;;5105505;28;20035;-41
2021/05/22 06:44:38;;;;;;;9.25;2.28;;;10.80;99.90;;;;;;5104286;28;20478;-40
2021/05/22 06:47:04;;;;;;;3.28;1.40;;;10.80;99.90;;;;;;5105261;28;20094;-40
2021/05/22 06:49:32;;;;;;;5.80;1.65;;;10.80;99.90;;;;;;5105270;28;20530;-40
2021/05/22 06:51:59;;;;;;;5.55;1.77;;;10.80;99.90;;;;;;5105116;28;20474;-42
2021/05/22 06:54:26;;;;;;;5.97;1.42;;;10.80;99.90;;;;;;5104945;28;20035;-40
2021/05/22 06:56:51;;;;;;;3.85;1.20;;;10.80;99.90;;;;;;5105112;28;20564;-40
2021/05/22 06:59:17;;;;;;;7.13;2.30;;;10.80;99.90;;;;;;5104750;28;20051;-41
2021/05/22 07:01:43;;;;;;;6.78;1.60;;;10.80;99.90;;;;;;5104282;28;20609;-40
2021/05/22 07:04:11;;;;;;;3.13;1.42;;;10.80;99.90;;;;;;5104941;28;20024;-39
2021/05/22 07:06:37;;;;;;;7.43;1.60;;;10.80;99.90;;;;;;5104958;28;20027;-40
2021/05/22 07:09:02;;;;;;;4.53;1.38;;;10.80;99.90;;;;;;5105079;27;20566;-40
2021/05/22 07:11:28;;;;;;;5.22;1.55;;;10.90;99.90;;;;;;5104618;28;20497;-40
2021/05/22 07:13:54;;;;;;;5.15;1.58;;;10.90;99.90;;;;;;5104517;28;20069;-40
2021/05/22 07:16:19;;;;;;;3.38;1.30;;;10.90;99.90;;;;;;5104976;28;20031;-39
2021/05/22 07:18:45;;;;;;;7.20;2.13;;;10.80;99.90;;;;;;5104748;28;20046;-39
2021/05/22 07:21:12;;;;;;;5.55;1.55;;;10.90;99.90;;;;;;5105335;28;20100;-41
2021/05/22 07:23:37;;;;;;;5.55;1.55;;;10.90;99.90;;;;;;5105147;28;20490;-41
2021/05/22 07:26:03;;;;;;;6.15;1.80;;;10.90;99.90;;;;;;5104836;28;20020;-40
2021/05/22 07:28:31;;;;;;;9.23;2.45;;;10.90;99.90;;;;;;5104710;28;20566;-42
2021/05/22 07:30:59;;;;;;;4.80;1.98;;;10.90;99.90;;;;;;5104772;28;20028;-41
2021/05/22 07:33:29;;;;;;;7.60;1.75;;;10.90;99.90;;;;;;5105241;28;20042;-37
2021/05/22 07:35:55;;;;;;;4.10;1.55;;;11.00;99.90;;;;;;5100906;28;20043;-40
2021/05/22 07:38:21;;;;;;;6.45;1.42;;;11.00;99.90;;;;;;5104718;28;20081;-39
2021/05/22 07:40:47;;;;;;;5.93;1.67;;;11.00;99.90;;;;;;5103753;28;20098;-40
2021/05/22 07:43:13;;;;;;;8.65;1.52;;;11.00;99.90;;;;;;5104707;28;20035;-40
2021/05/22 07:45:38;;;;;;;4.05;1.67;;;11.00;99.90;;;;;;5103867;28;20020;-40
2021/05/22 07:48:05;;;;;;;4.80;1.65;;;11.00;99.90;;;;;;5104185;28;20031;-40
2021/05/22 07:50:31;;;;;;;4.25;1.55;;;11.10;99.90;;;;;;5105736;28;20039;-40
2021/05/22 07:52:59;;;;;;;4.07;1.65;;;11.10;99.90;;;;;;5108590;28;20036;-43
2021/05/22 07:55:25;;;;;;;3.90;1.50;;;11.10;99.90;;;;;;5108683;28;20031;-40
2021/05/22 07:57:51;;;;;;;4.88;1.35;;;11.20;99.90;;;;;;5109585;28;20069;-41
2021/05/22 08:00:17;;;;;;;6.32;1.42;;;11.20;99.90;;;;;;5110477;28;20439;-39
2021/05/22 08:02:43;;;;;;;4.32;1.40;;;11.30;99.90;;;;;;5109216;28;20028;-40
2021/05/22 08:05:09;;;;;;;6.22;1.38;;;11.30;99.90;;;;;;5110606;28;20084;-41
2021/05/22 08:07:35;;;;;;;3.72;1.60;;;11.30;99.90;;;;;;5109992;28;20039;-40
2021/05/22 08:10:02;;;;;;;10.80;1.80;;;11.30;99.90;;;;;;5109708;28;20024;-39
2021/05/22 08:12:27;;;;;;;3.08;1.13;;;11.30;99.90;;;;;;5110509;28;20023;-41
2021/05/22 08:14:56;;;;;;;3.58;1.35;;;11.30;99.90;;;;;;5109312;28;20100;-41
2021/05/22 08:17:22;;;;;;;2.95;1.23;;;11.40;99.90;;;;;;5109418;28;20039;-40
2021/05/22 08:19:48;;;;;;;4.88;1.77;;;11.40;99.90;;;;;;5111166;27;20033;-41
2021/05/22 08:22:13;;;;;;;4.03;1.20;;;11.40;99.90;;;;;;5109377;28;20012;-40
2021/05/22 08:24:39;;;;;;;1.90;1.50;;;11.40;99.90;;;;;;5108141;28;20107;-40
2021/05/22 08:27:05;;;;;;;3.50;1.38;;;11.40;99.90;;;;;;5109154;28;20028;-40
2021/05/22 08:29:30;;;;;;;2.90;1.40;;;11.40;99.90;;;;;;5109457;28;20061;-41
2021/05/22 08:31:56;;;;;;;4.53;1.52;;;11.40;99.90;;;;;;5109208;28;20074;-40
2021/05/22 08:34:23;;;;;;;2.83;1.30;;;11.40;99.90;;;;;;5109620;28;20126;-40
2021/05/22 08:36:49;;;;;;;4.13;1.48;;;11.40;99.90;;;;;;5109015;28;20137;-40
2021/05/22 08:39:14;;;;;;;2.33;1.20;;;11.30;99.90;;;;;;5109426;28;20509;-43
2021/05/22 08:41:42;;;;;;;2.60;1.27;;;11.30;99.90;;;;;;5108682;28;20024;-40
2021/05/22 08:44:07;;;;;;;1.75;1.02;;;11.30;99.90;;;;;;5109965;28;20076;-40
2021/05/22 08:46:33;;;;;;;2.00;1.40;;;11.30;99.90;;;;;;5108921;28;20123;-41
2021/05/22 08:48:59;;;;;;;3.78;1.42;;;11.30;99.90;;;;;;5109195;28;20019;-39
2021/05/22 08:51:25;;;;;;;4.28;1.40;;;11.30;99.90;;;;;;5108670;28;20032;-39
2021/05/22 08:53:50;;;;;;;4.70;1.58;;;11.40;99.90;;;;;;5109152;28;20015;-41
2021/05/22 08:56:16;;;;;;;3.53;1.90;;;11.40;99.90;;;;;;5109332;28;20035;-41
2021/05/22 08:58:42;;;;;;;2.47;1.70;;;11.40;99.90;;;;;;5107946;28;20031;-41
2021/05/22 09:01:10;;;;;;;4.05;1.70;;;11.40;99.90;;;;;;5109114;28;20015;-39
2021/05/22 09:03:36;;;;;;;6.32;1.63;;;11.40;99.90;;;;;;5107398;28;20020;-39
2021/05/22 09:06:03;;;;;;;4.40;1.77;;;11.30;99.90;;;;;;5108800;28;20012;-37
2021/05/22 09:08:32;;;;;;;3.63;1.60;;;11.30;99.90;;;;;;5108509;28;20020;-40
2021/05/22 09:11:02;;;;;;;5.80;2.20;;;11.40;99.90;;;;;;5108734;28;20031;-40
2021/05/22 09:13:30;;;;;;;3.47;1.83;;;11.40;99.90;;;;;;5108255;28;20031;-39
2021/05/22 09:16:01;;;;;;;4.22;2.00;;;11.40;99.90;;;;;;5108479;28;20031;-40
2021/05/22 09:18:42;;;;;;;3.65;1.90;;;11.50;99.90;;;;;;5108617;28;20058;-40
2021/05/22 09:21:10;;;;;;;3.75;2.10;;;11.60;99.90;;;;;;5108901;28;20172;-39
2021/05/22 09:23:39;;;;;;;5.78;2.25;;;11.60;99.90;;;;;;5108757;28;20023;-41
2021/05/22 09:26:15;;;;;;;3.88;2.10;;;11.60;99.90;;;;;;5108741;28;20019;-39
2021/05/22 09:28:49;;;;;;;3.75;2.53;;;11.60;99.90;;;;;;5107586;28;20035;-40
2021/05/22 09:31:17;;;;;;;3.38;2.20;;;11.60;99.90;;;;;;5108519;27;20035;-40
2021/05/22 09:33:43;;;;;;;5.97;2.40;;;11.70;99.90;;;;;;5107456;28;20145;-41
2021/05/22 09:36:14;;;;;;;3.35;2.35;;;11.70;99.90;;;;;;5108875;28;20491;-38
2021/05/22 09:38:41;;;;;;;4.18;2.25;;;11.70;99.90;;;;;;5107583;28;20028;-39
2021/05/22 09:41:27;;;;;;;4.00;2.20;;;11.70;99.90;;;;;;5108479;28;20031;-41
2021/05/22 09:44:10;;;;;;;4.75;2.60;;;11.70;99.90;;;;;;5108334;27;20019;-42
2021/05/22 09:46:38;;;;;;;4.32;2.55;;;11.80;99.90;;;;;;5108011;28;20451;-41
2021/05/22 09:49:06;;;;;;;3.90;2.40;;;11.80;99.90;;;;;;5107579;28;20107;-41
2021/05/22 09:51:32;;;;;;;4.90;2.70;;;11.90;99.90;;;;;;5107528;28;20130;-43
2021/05/22 09:53:58;;;;;;;4.38;2.70;;;11.90;99.90;;;;;;5107551;28;20534;-41
2021/05/22 09:56:26;;;;;;;4.95;2.80;;;11.90;99.90;;;;;;5105569;28;20115;-40
2021/05/22 09:58:56;;;;;;;4.50;2.83;;;11.80;99.90;;;;;;5102992;28;20689;-40
2021/05/22 10:01:30;;;;;;;5.13;2.78;;;11.80;99.90;;;;;;5108544;28;20068;-39
2021/05/22 10:04:14;;;;;;;4.47;2.63;;;11.80;99.90;;;;;;5107275;28;20028;-37
2021/05/22 10:06:41;;;;;;;4.80;2.38;;;11.80;99.90;;;;;;5098986;28;20130;-39
2021/05/22 10:09:14;;;;;;;3.15;2.80;;;11.90;99.90;;;;;;5107662;28;20463;-40
2021/05/22 10:12:02;;;;;;;3.05;2.80;;;11.90;99.90;;;;;;5107605;28;20032;-40
2021/05/22 10:14:54;;;;;;;4.15;3.20;;;11.90;99.90;;;;;;5106630;28;20233;-39
2021/05/22 10:17:22;;;;;;;3.67;3.33;;;11.90;99.90;;;;;;5104528;27;20071;-40
2021/05/22 10:19:48;;;;;;;4.40;3.15;;;12.00;99.90;;;;;;5107131;28;20262;-40
2021/05/22 10:22:13;;;;;;;5.22;3.50;;;12.00;99.90;;;;;;5108468;28;20445;-39
2021/05/22 10:24:40;;;;;;;2.90;2.60;;;12.00;99.90;;;;;;5107026;28;20119;-41
2021/05/22 10:27:05;;;;;;;4.70;3.03;;;12.00;99.90;;;;;;5107850;28;20498;-41
2021/05/22 10:29:34;;;;;;;7.20;3.40;;;12.10;99.90;;;;;;5107177;28;20055;-41
2021/05/22 10:32:00;;;;;;;3.97;3.10;;;12.10;99.90;;;;;;5107121;28;20027;-40
2021/05/22 10:34:27;;;;;;;4.30;2.92;;;12.10;99.90;;;;;;5107196;28;20016;-40
2021/05/22 10:36:59;;;;;;;4.65;2.92;;;12.00;99.90;;;;;;5107016;28;20123;-41
2021/05/22 10:39:34;;;;;;;3.22;2.92;;;12.00;99.90;;;;;;5107847;28;20032;-40
2021/05/22 10:42:00;;;;;;;3.72;2.90;;;12.00;99.90;;;;;;5106016;28;20031;-40
2021/05/22 10:44:35;;;;;;;6.97;3.53;;;12.00;99.90;;;;;;5105353;28;20038;-40
2021/05/22 10:47:12;;;;;;;5.18;3.35;;;12.00;99.90;;;;;;5107214;28;20480;-41
2021/05/22 10:49:58;;;;;;;3.20;3.00;;;12.00;99.90;;;;;;5106059;28;20062;-41
2021/05/22 10:52:27;;;;;;;4.82;3.40;;;12.00;99.90;;;;;;5105815;28;20513;-41
2021/05/22 10:54:58;;;;;;;3.90;3.50;;;11.90;99.90;;;;;;5107124;28;20114;-41
2021/05/22 10:57:24;;;;;;;4.55;3.22;;;12.00;99.90;;;;;;5107373;27;20107;-41
2021/05/22 11:00:21;;;;;;;3.67;3.10;;;12.00;99.90;;;;;;5106163;28;20471;-41
2021/05/22 11:02:54;;;;;;;3.58;2.97;;;12.00;99.90;;;;;;5106345;28;20028;-38
2021/05/22 11:05:29;;;;;;;3.20;2.90;;;12.00;99.90;;;;;;5106936;28;20360;-41
2021/05/22 11:08:04;;;;;;;2.97;2.78;;;12.10;99.90;;;;;;5106137;28;20031;-41
2021/05/22 11:10:41;;;;;;;3.88;3.03;;;12.20;99.90;;;;;;5100681;28;20129;-41
2021/05/22 11:13:11;;;;;;;3.47;3.10;;;12.30;99.90;;;;;;5105355;28;20103;-41
2021/05/22 11:15:57;;;;;;;3.33;3.03;;;12.40;99.90;;;;;;5106323;28;20309;-41
2021/05/22 11:18:27;;;;;;;3.33;3.03;;;12.50;99.90;;;;;;5102150;28;20031;-41
2021/05/22 11:21:11;;;;;;;3.58;3.00;;;12.50;99.90;;;;;;5104848;28;20032;-41
2021/05/22 11:23:59;;;;;;;3.28;3.00;;;12.60;99.90;;;;;;5104027;28;20015;-41
2021/05/22 11:26:52;;;;;;;3.30;3.00;;;12.60;99.90;;;;;;5107552;28;20032;-41
2021/05/22 11:29:18;;;;;;;3.78;3.20;;;12.60;99.90;;;;;;5100580;28;20015;-41
2021/05/22 11:31:44;;;;;;;3.40;3.10;;;12.50;99.90;;;;;;5109267;28;20039;-41
2021/05/22 11:34:22;;;;;;;3.85;3.53;;;12.50;99.90;;;;;;5109218;28;20034;-41
2021/05/22 11:37:09;;;;;;;5.75;3.55;;;12.40;99.90;;;;;;5108015;28;20023;-41
2021/05/22 11:39:41;;;;;;;3.05;2.72;;;12.30;99.90;;;;;;5099625;28;20046;-41
2021/05/22 11:42:33;;;;;;;3.40;2.20;;;12.30;99.90;;;;;;5109675;28;20034;-41
2021/05/22 11:45:05;;;;;;;2.53;2.17;;;12.20;99.90;;;;;;5101997;28;20049;-40
2021/05/22 11:47:34;;;;;;;2.42;2.00;;;12.10;99.90;;;;;;5109383;28;20102;-41
2021/05/22 11:50:22;;;;;;;2.67;1.73;;;12.10;99.90;;;;;;5110240;28;20332;-41
2021/05/22 11:52:47;;;;;;;2.30;2.10;;;12.10;99.90;;;;;;5109086;28;20384;-40
2021/05/22 11:55:18;;;;;;;2.92;1.98;;;12.20;99.90;;;;;;5110197;28;20481;-38
2021/05/22 11:57:44;;;;;;;3.40;2.15;;;12.20;99.90;;;;;;5109277;28;20034;-42
2021/05/22 12:00:10;;;;;;;3.03;1.80;;;12.40;99.90;;;;;;5110586;28;20032;-41
2021/05/22 12:02:39;;;;;;;3.40;2.20;;;12.50;99.90;;;;;;5108715;28;20027;-42
2021/05/22 12:05:08;;;;;;;2.47;2.20;;;12.50;99.90;;;;;;5109619;28;20051;-41
2021/05/22 12:07:50;;;;;;;2.83;1.90;;;12.50;99.90;;;;;;5109563;28;20036;-40
2021/05/22 12:10:18;;;;;;;2.33;2.00;;;12.50;99.90;;;;;;5107384;28;20544;-41
2021/05/22 12:12:46;;;;;;;2.63;2.30;;;12.50;99.90;;;;;;5109316;28;20024;-42
2021/05/22 12:15:26;;;;;;;2.40;2.20;;;12.40;99.90;;;;;;5109288;28;20130;-40
2021/05/22 12:17:53;;;;;;;2.80;2.50;;;12.50;99.90;;;;;;5108538;28;20027;-40
2021/05/22 12:20:20;;;;;;;3.75;2.40;;;12.60;99.90;;;;;;5109772;28;20122;-41
2021/05/22 12:22:45;;;;;;;3.03;2.53;;;12.70;99.90;;;;;;5108405;28;20031;-41
2021/05/22 12:25:12;;;;;;;5.40;3.15;;;12.80;99.90;;;;;;5109596;28;20016;-41
2021/05/22 12:27:41;;;;;;;4.50;3.10;;;12.80;99.90;;;;;;5109450;28;20562;-41
2021/05/22 12:30:08;;;;;;;5.03;3.50;;;12.90;99.90;;;;;;5108653;28;20035;-40
2021/05/22 12:32:34;;;;;;;3.50;3.20;;;12.80;99.90;;;;;;5088911;28;20016;-40
2021/05/22 12:35:02;;;;;;;4.82;3.47;;;12.80;99.90;;;;;;5102982;28;20356;-41
2021/05/22 12:37:29;;;;;;;3.60;3.30;;;12.80;99.90;;;;;;5107389;28;20082;-41
2021/05/22 12:40:00;;;;;;;5.60;3.58;;;12.80;99.90;;;;;;5108900;28;20022;-39
2021/05/22 12:42:36;;;;;;;3.97;3.30;;;12.80;99.90;;;;;;5109262;28;20124;-41
2021/05/22 12:45:08;;;;;;;3.88;3.50;;;12.90;99.90;;;;;;5108184;28;20019;-40
2021/05/22 12:47:38;;;;;;;5.15;3.50;;;13.00;99.90;;;;;;5109248;28;20141;-40
2021/05/22 12:50:07;;;;;;;5.38;3.30;;;12.90;99.90;;;;;;5108744;28;20024;-40
2021/05/22 12:52:48;;;;;;;4.78;3.63;;;13.00;99.90;;;;;;5108233;28;20123;-40